sensor_id;sensor_type;location;lat;lon;timestamp;temperature;humidity
4655;DHT22;2340;47.814;9.798;2023-03-25T00:00:08;7.10;99.90
4655;DHT22;2340;47.814;9.798;2023-03-25T00:02:42;7.10;99.90
4655;DHT22;2340;47.814;9.798;2023-03-25T00:05:09;7.10;99.90
4655;DHT22;2340;47.814;9.798;2023-03-25T00:07:35;7.20;99.90
4655;DHT22;2340;47.814;9.798;2023-03-25T00:10:01;7.10;99.90
4655;DHT22;2340;47.814;9.798;2023-03-25T00:12:26;7.10;99.90
4655;DHT22;2340;47.814;9.798;2023-03-25T00:14:52;7.10;99.90
4655;DHT22;2340;47.814;9.798;2023-03-25T00:17:23;7.10;99.90
4655;DHT22;2340;47.814;9.798;2023-03-25T00:19:50;7.10;99.90
4655;DHT22;2340;47.814;9.798;2023-03-25T00:22:16;7.10;99.90
4655;DHT22;2340;47.814;9.798;2023-03-25T00:24:42;7.10;99.90
4655;DHT22;2340;47.814;9.798;2023-03-25T00:27:07;7.10;99.90
4655;DHT22;2340;47.814;9.798;2023-03-25T00:29:33;7.10;99.90
4655;DHT22;2340;47.814;9.798;2023-03-25T00:31:58;7.00;99.90
4655;DHT22;2340;47.814;9.798;2023-03-25T00:34:24;7.00;99.90
4655;DHT22;2340;47.814;9.798;2023-03-25T00:36:49;7.00;99.90
4655;DHT22;2340;47.814;9.798;2023-03-25T00:39:15;7.00;99.90
4655;DHT22;2340;47.814;9.798;2023-03-25T00:41:40;7.00;99.90
4655;DHT22;2340;47.814;9.798;2023-03-25T00:44:07;7.00;99.90
4655;DHT22;2340;47.814;9.798;2023-03-25T00:46:33;7.00;99.90
4655;DHT22;2340;47.814;9.798;2023-03-25T00:48:59;7.00;99.90
4655;DHT22;2340;47.814;9.798;2023-03-25T00:51:25;7.00;99.90
4655;DHT22;2340;47.814;9.798;2023-03-25T00:53:52;6.90;99.90
4655;DHT22;2340;47.814;9.798;2023-03-25T00:56:18;6.90;99.90
4655;DHT22;2340;47.814;9.798;2023-03-25T00:58:44;6.90;99.90
4655;DHT22;2340;47.814;9.798;2023-03-25T01:01:13;6.90;99.90
4655;DHT22;2340;47.814;9.798;2023-03-25T01:03:40;6.90;99.90
4655;DHT22;2340;47.814;9.798;2023-03-25T01:06:08;6.90;99.90
4655;DHT22;2340;47.814;9.798;2023-03-25T01:08:34;6.90;99.90
4655;DHT22;2340;47.814;9.798;2023-03-25T01:11:00;6.90;99.90
4655;DHT22;2340;47.814;9.798;2023-03-25T01:13:25;6.90;99.90
4655;DHT22;2340;47.814;9.798;2023-03-25T01:15:51;6.90;99.90
4655;DHT22;2340;47.814;9.798;2023-03-25T01:18:16;6.90;99.90
4655;DHT22;2340;47.814;9.798;2023-03-25T01:20:41;6.90;99.90
4655;DHT22;2340;47.814;9.798;2023-03-25T01:23:07;6.80;99.90
4655;DHT22;2340;47.814;9.798;2023-03-25T01:25:36;6.80;99.90
4655;DHT22;2340;47.814;9.798;2023-03-25T01:28:02;6.80;99.90
4655;DHT22;2340;47.814;9.798;2023-03-25T01:30:27;6.80;99.90
4655;DHT22;2340;47.814;9.798;2023-03-25T01:32:53;6.80;99.90
4655;DHT22;2340;47.814;9.798;2023-03-25T01:35:18;6.80;99.90
4655;DHT22;2340;47.814;9.798;2023-03-25T01:37:44;6.70;99.90
4655;DHT22;2340;47.814;9.798;2023-03-25T01:40:15;6.70;99.90
4655;DHT22;2340;47.814;9.798;2023-03-25T01:42:41;6.70;99.90
4655;DHT22;2340;47.814;9.798;2023-03-25T01:45:12;6.70;99.90
4655;DHT22;2340;47.814;9.798;2023-03-25T01:47:38;6.60;99.90
4655;DHT22;2340;47.814;9.798;2023-03-25T01:50:03;6.60;99.90
4655;DHT22;2340;47.814;9.798;2023-03-25T01:52:29;6.60;99.90
4655;DHT22;2340;47.814;9.798;2023-03-25T01:54:55;6.50;99.90
4655;DHT22;2340;47.814;9.798;2023-03-25T01:57:21;6.40;99.90
4655;DHT22;2340;47.814;9.798;2023-03-25T01:59:47;6.40;99.90
4655;DHT22;2340;47.814;9.798;2023-03-25T02:02:15;6.40;99.90
4655;DHT22;2340;47.814;9.798;2023-03-25T02:07:37;6.30;99.90
4655;DHT22;2340;47.814;9.798;2023-03-25T02:10:05;6.20;99.90
4655;DHT22;2340;47.814;9.798;2023-03-25T02:12:32;6.30;99.90
4655;DHT22;2340;47.814;9.798;2023-03-25T02:14:58;6.30;99.90
4655;DHT22;2340;47.814;9.798;2023-03-25T02:22:34;6.20;99.90
4655;DHT22;2340;47.814;9.798;2023-03-25T02:35:23;6.10;99.90
4655;DHT22;2340;47.814;9.798;2023-03-25T02:43:03;6.00;99.90
4655;DHT22;2340;47.814;9.798;2023-03-25T02:45:30;6.10;99.90
4655;DHT22;2340;47.814;9.798;2023-03-25T02:48:01;6.10;99.90
4655;DHT22;2340;47.814;9.798;2023-03-25T02:52:59;6.10;99.90
4655;DHT22;2340;47.814;9.798;2023-03-25T02:55:25;6.10;99.90
4655;DHT22;2340;47.814;9.798;2023-03-25T02:57:54;6.10;99.90
4655;DHT22;2340;47.814;9.798;2023-03-25T03:00:27;6.10;99.90
4655;DHT22;2340;47.814;9.798;2023-03-25T03:02:57;6.20;99.90
4655;DHT22;2340;47.814;9.798;2023-03-25T03:08:02;6.20;99.90
4655;DHT22;2340;47.814;9.798;2023-03-25T03:10:42;6.20;99.90
4655;DHT22;2340;47.814;9.798;2023-03-25T03:18:27;6.30;99.90
4655;DHT22;2340;47.814;9.798;2023-03-25T03:21:17;6.30;99.90
4655;DHT22;2340;47.814;9.798;2023-03-25T03:31:50;6.30;99.90
4655;DHT22;2340;47.814;9.798;2023-03-25T03:34:28;6.30;99.90
4655;DHT22;2340;47.814;9.798;2023-03-25T03:36:56;6.20;99.90
4655;DHT22;2340;47.814;9.798;2023-03-25T03:39:25;6.20;99.90
4655;DHT22;2340;47.814;9.798;2023-03-25T03:41:54;6.20;99.90
4655;DHT22;2340;47.814;9.798;2023-03-25T03:44:24;6.20;99.90
4655;DHT22;2340;47.814;9.798;2023-03-25T03:46:57;6.20;99.90
4655;DHT22;2340;47.814;9.798;2023-03-25T03:49:37;6.20;99.90
4655;DHT22;2340;47.814;9.798;2023-03-25T03:52:13;6.30;99.90
4655;DHT22;2340;47.814;9.798;2023-03-25T03:54:44;6.30;99.90
4655;DHT22;2340;47.814;9.798;2023-03-25T03:57:13;6.30;99.90
4655;DHT22;2340;47.814;9.798;2023-03-25T03:59:41;6.30;99.90
4655;DHT22;2340;47.814;9.798;2023-03-25T04:02:56;6.30;99.90
4655;DHT22;2340;47.814;9.798;2023-03-25T04:04:56;6.30;99.90
4655;DHT22;2340;47.814;9.798;2023-03-25T04:07:32;6.30;99.90
4655;DHT22;2340;47.814;9.798;2023-03-25T04:10:04;6.30;99.90
4655;DHT22;2340;47.814;9.798;2023-03-25T04:12:39;6.30;99.90
4655;DHT22;2340;47.814;9.798;2023-03-25T04:15:06;6.30;99.90
4655;DHT22;2340;47.814;9.798;2023-03-25T04:17:32;6.30;99.90
4655;DHT22;2340;47.814;9.798;2023-03-25T04:19:58;6.10;99.90
4655;DHT22;2340;47.814;9.798;2023-03-25T04:22:24;6.00;99.90
4655;DHT22;2340;47.814;9.798;2023-03-25T04:24:49;6.00;99.90
4655;DHT22;2340;47.814;9.798;2023-03-25T04:27:16;5.90;99.90
4655;DHT22;2340;47.814;9.798;2023-03-25T04:29:42;5.90;99.90
4655;DHT22;2340;47.814;9.798;2023-03-25T04:32:09;5.80;99.90
4655;DHT22;2340;47.814;9.798;2023-03-25T04:34:35;5.80;99.90
4655;DHT22;2340;47.814;9.798;2023-03-25T04:37:00;5.70;99.90
4655;DHT22;2340;47.814;9.798;2023-03-25T04:39:26;5.70;99.90
4655;DHT22;2340;47.814;9.798;2023-03-25T04:41:54;5.70;99.90
4655;DHT22;2340;47.814;9.798;2023-03-25T04:44:21;5.70;99.90
4655;DHT22;2340;47.814;9.798;2023-03-25T04:46:47;5.60;99.90
4655;DHT22;2340;47.814;9.798;2023-03-25T04:49:20;5.60;99.90
4655;DHT22;2340;47.814;9.798;2023-03-25T04:51:46;5.50;99.90
4655;DHT22;2340;47.814;9.798;2023-03-25T04:54:19;5.50;99.90
4655;DHT22;2340;47.814;9.798;2023-03-25T04:56:45;5.40;99.90
4655;DHT22;2340;47.814;9.798;2023-03-25T04:59:12;5.40;99.90
4655;DHT22;2340;47.814;9.798;2023-03-25T05:01:38;5.30;99.90
4655;DHT22;2340;47.814;9.798;2023-03-25T05:04:06;5.20;99.90
4655;DHT22;2340;47.814;9.798;2023-03-25T05:06:36;5.20;99.90
4655;DHT22;2340;47.814;9.798;2023-03-25T05:09:07;5.20;99.90
4655;DHT22;2340;47.814;9.798;2023-03-25T05:11:34;5.20;99.90
4655;DHT22;2340;47.814;9.798;2023-03-25T05:14:01;5.10;99.90
4655;DHT22;2340;47.814;9.798;2023-03-25T05:16:26;5.10;99.90
4655;DHT22;2340;47.814;9.798;2023-03-25T05:18:52;5.00;99.90
4655;DHT22;2340;47.814;9.798;2023-03-25T05:21:17;5.00;99.90
4655;DHT22;2340;47.814;9.798;2023-03-25T05:23:43;5.00;99.90
4655;DHT22;2340;47.814;9.798;2023-03-25T05:26:09;5.00;99.90
4655;DHT22;2340;47.814;9.798;2023-03-25T05:28:36;5.00;99.90
4655;DHT22;2340;47.814;9.798;2023-03-25T05:31:02;5.00;99.90
4655;DHT22;2340;47.814;9.798;2023-03-25T05:33:33;5.00;99.90
4655;DHT22;2340;47.814;9.798;2023-03-25T05:35:58;5.00;99.90
4655;DHT22;2340;47.814;9.798;2023-03-25T05:38:25;5.00;99.90
4655;DHT22;2340;47.814;9.798;2023-03-25T05:40:51;5.00;99.90
4655;DHT22;2340;47.814;9.798;2023-03-25T05:43:16;5.00;99.90
4655;DHT22;2340;47.814;9.798;2023-03-25T05:45:46;5.00;99.90
4655;DHT22;2340;47.814;9.798;2023-03-25T05:48:12;4.90;99.90
4655;DHT22;2340;47.814;9.798;2023-03-25T05:50:37;4.90;99.90
4655;DHT22;2340;47.814;9.798;2023-03-25T05:53:09;4.90;99.90
4655;DHT22;2340;47.814;9.798;2023-03-25T05:55:35;4.80;99.90
4655;DHT22;2340;47.814;9.798;2023-03-25T05:58:00;4.80;99.90
4655;DHT22;2340;47.814;9.798;2023-03-25T06:00:26;4.70;99.90
4655;DHT22;2340;47.814;9.798;2023-03-25T06:02:52;4.70;99.90
4655;DHT22;2340;47.814;9.798;2023-03-25T06:05:17;4.80;99.90
4655;DHT22;2340;47.814;9.798;2023-03-25T06:07:47;4.80;99.90
4655;DHT22;2340;47.814;9.798;2023-03-25T06:10:14;4.70;99.90
4655;DHT22;2340;47.814;9.798;2023-03-25T06:12:43;4.70;99.90
4655;DHT22;2340;47.814;9.798;2023-03-25T06:15:10;4.70;99.90
4655;DHT22;2340;47.814;9.798;2023-03-25T06:17:36;4.70;99.90
4655;DHT22;2340;47.814;9.798;2023-03-25T06:20:05;4.70;99.90
4655;DHT22;2340;47.814;9.798;2023-03-25T06:22:38;4.70;99.90
4655;DHT22;2340;47.814;9.798;2023-03-25T06:25:04;4.70;99.90
4655;DHT22;2340;47.814;9.798;2023-03-25T06:27:30;4.70;99.90
4655;DHT22;2340;47.814;9.798;2023-03-25T06:30:00;4.70;99.90
4655;DHT22;2340;47.814;9.798;2023-03-25T06:32:25;4.70;99.90
4655;DHT22;2340;47.814;9.798;2023-03-25T06:34:51;4.70;99.90
4655;DHT22;2340;47.814;9.798;2023-03-25T06:37:16;4.70;99.90
4655;DHT22;2340;47.814;9.798;2023-03-25T06:39:42;4.70;99.90
4655;DHT22;2340;47.814;9.798;2023-03-25T06:42:13;4.60;99.90
4655;DHT22;2340;47.814;9.798;2023-03-25T06:44:39;4.50;99.90
4655;DHT22;2340;47.814;9.798;2023-03-25T06:47:04;4.40;99.90
4655;DHT22;2340;47.814;9.798;2023-03-25T06:49:31;4.40;99.90
4655;DHT22;2340;47.814;9.798;2023-03-25T06:51:56;4.30;99.90
4655;DHT22;2340;47.814;9.798;2023-03-25T06:54:22;4.30;99.90
4655;DHT22;2340;47.814;9.798;2023-03-25T06:56:48;4.40;99.90
4655;DHT22;2340;47.814;9.798;2023-03-25T06:59:13;4.40;99.90
4655;DHT22;2340;47.814;9.798;2023-03-25T07:01:39;4.40;99.90
4655;DHT22;2340;47.814;9.798;2023-03-25T07:04:05;4.50;99.90
4655;DHT22;2340;47.814;9.798;2023-03-25T07:06:31;4.40;99.90
4655;DHT22;2340;47.814;9.798;2023-03-25T07:08:56;4.40;99.90
4655;DHT22;2340;47.814;9.798;2023-03-25T07:11:24;4.40;99.90
4655;DHT22;2340;47.814;9.798;2023-03-25T07:13:50;4.40;99.90
4655;DHT22;2340;47.814;9.798;2023-03-25T07:16:18;4.50;99.90
4655;DHT22;2340;47.814;9.798;2023-03-25T07:18:44;4.50;99.90
4655;DHT22;2340;47.814;9.798;2023-03-25T07:21:09;4.50;99.90
4655;DHT22;2340;47.814;9.798;2023-03-25T07:23:35;4.50;99.90
4655;DHT22;2340;47.814;9.798;2023-03-25T07:26:00;4.50;99.90
4655;DHT22;2340;47.814;9.798;2023-03-25T07:28:26;4.60;99.90
4655;DHT22;2340;47.814;9.798;2023-03-25T07:30:51;4.50;99.90
4655;DHT22;2340;47.814;9.798;2023-03-25T07:33:17;4.50;99.90
4655;DHT22;2340;47.814;9.798;2023-03-25T07:35:42;4.40;99.90
4655;DHT22;2340;47.814;9.798;2023-03-25T07:38:07;4.40;99.90
4655;DHT22;2340;47.814;9.798;2023-03-25T07:40:34;4.60;99.90
4655;DHT22;2340;47.814;9.798;2023-03-25T07:42:59;4.60;99.90
4655;DHT22;2340;47.814;9.798;2023-03-25T07:45:25;4.70;99.90
4655;DHT22;2340;47.814;9.798;2023-03-25T07:47:51;4.80;99.90
4655;DHT22;2340;47.814;9.798;2023-03-25T07:50:20;5.00;99.90
4655;DHT22;2340;47.814;9.798;2023-03-25T07:52:46;5.20;99.90
4655;DHT22;2340;47.814;9.798;2023-03-25T07:55:12;5.40;99.90
4655;DHT22;2340;47.814;9.798;2023-03-25T07:57:39;5.40;99.90
4655;DHT22;2340;47.814;9.798;2023-03-25T08:00:05;5.50;99.90
4655;DHT22;2340;47.814;9.798;2023-03-25T08:02:31;5.50;99.90
4655;DHT22;2340;47.814;9.798;2023-03-25T08:04:56;5.50;99.90
4655;DHT22;2340;47.814;9.798;2023-03-25T08:07:22;5.60;99.90
4655;DHT22;2340;47.814;9.798;2023-03-25T08:09:48;5.60;99.90
4655;DHT22;2340;47.814;9.798;2023-03-25T08:12:13;5.70;99.90
4655;DHT22;2340;47.814;9.798;2023-03-25T08:14:38;5.70;99.90
4655;DHT22;2340;47.814;9.798;2023-03-25T08:17:04;5.80;99.90
4655;DHT22;2340;47.814;9.798;2023-03-25T08:19:30;5.90;99.90
4655;DHT22;2340;47.814;9.798;2023-03-25T08:21:56;6.00;99.90
4655;DHT22;2340;47.814;9.798;2023-03-25T08:24:21;6.20;99.90
4655;DHT22;2340;47.814;9.798;2023-03-25T08:26:48;6.90;99.90
4655;DHT22;2340;47.814;9.798;2023-03-25T08:29:14;7.30;99.90
4655;DHT22;2340;47.814;9.798;2023-03-25T08:31:41;7.20;99.90
4655;DHT22;2340;47.814;9.798;2023-03-25T08:34:11;7.00;99.90
4655;DHT22;2340;47.814;9.798;2023-03-25T08:36:37;6.90;99.90
4655;DHT22;2340;47.814;9.798;2023-03-25T08:39:04;7.00;99.90
4655;DHT22;2340;47.814;9.798;2023-03-25T08:41:34;6.90;99.90
4655;DHT22;2340;47.814;9.798;2023-03-25T08:43:59;6.90;99.90
4655;DHT22;2340;47.814;9.798;2023-03-25T08:46:25;6.90;99.90
4655;DHT22;2340;47.814;9.798;2023-03-25T08:48:50;6.70;99.90
4655;DHT22;2340;47.814;9.798;2023-03-25T08:51:17;6.50;99.90
4655;DHT22;2340;47.814;9.798;2023-03-25T08:53:43;6.60;99.90
4655;DHT22;2340;47.814;9.798;2023-03-25T08:56:08;6.70;99.90
4655;DHT22;2340;47.814;9.798;2023-03-25T08:58:34;7.00;99.90
4655;DHT22;2340;47.814;9.798;2023-03-25T09:01:00;7.50;99.90
4655;DHT22;2340;47.814;9.798;2023-03-25T09:03:26;7.90;99.90
4655;DHT22;2340;47.814;9.798;2023-03-25T09:05:52;8.20;99.90
4655;DHT22;2340;47.814;9.798;2023-03-25T09:08:18;8.30;99.90
4655;DHT22;2340;47.814;9.798;2023-03-25T09:10:43;8.50;99.90
4655;DHT22;2340;47.814;9.798;2023-03-25T09:13:09;8.80;99.90
4655;DHT22;2340;47.814;9.798;2023-03-25T09:15:34;9.00;99.90
4655;DHT22;2340;47.814;9.798;2023-03-25T09:18:00;9.00;99.90
4655;DHT22;2340;47.814;9.798;2023-03-25T09:20:25;9.00;99.90
4655;DHT22;2340;47.814;9.798;2023-03-25T09:22:51;8.60;99.90
4655;DHT22;2340;47.814;9.798;2023-03-25T09:25:17;8.40;99.90
4655;DHT22;2340;47.814;9.798;2023-03-25T09:27:42;8.20;99.90
4655;DHT22;2340;47.814;9.798;2023-03-25T09:30:08;8.00;99.90
4655;DHT22;2340;47.814;9.798;2023-03-25T09:32:34;7.90;99.90
4655;DHT22;2340;47.814;9.798;2023-03-25T09:34:59;7.90;99.90
4655;DHT22;2340;47.814;9.798;2023-03-25T09:37:25;7.90;99.90
4655;DHT22;2340;47.814;9.798;2023-03-25T09:39:50;7.80;99.90
4655;DHT22;2340;47.814;9.798;2023-03-25T09:47:27;7.70;99.90
4655;DHT22;2340;47.814;9.798;2023-03-25T09:49:56;7.60;99.90
4655;DHT22;2340;47.814;9.798;2023-03-25T09:52:28;7.50;99.90
4655;DHT22;2340;47.814;9.798;2023-03-25T09:54:58;7.40;99.90
4655;DHT22;2340;47.814;9.798;2023-03-25T09:57:26;7.50;99.90
4655;DHT22;2340;47.814;9.798;2023-03-25T09:59:53;7.50;99.90
4655;DHT22;2340;47.814;9.798;2023-03-25T10:02:24;7.40;99.90
4655;DHT22;2340;47.814;9.798;2023-03-25T10:12:41;7.30;99.90
4655;DHT22;2340;47.814;9.798;2023-03-25T10:15:13;7.30;99.90
4655;DHT22;2340;47.814;9.798;2023-03-25T10:20:44;7.60;99.90
4655;DHT22;2340;47.814;9.798;2023-03-25T10:23:19;7.80;99.90
4655;DHT22;2340;47.814;9.798;2023-03-25T10:25:46;7.90;99.90
4655;DHT22;2340;47.814;9.798;2023-03-25T10:28:18;7.80;99.90
4655;DHT22;2340;47.814;9.798;2023-03-25T10:30:50;7.60;99.90
4655;DHT22;2340;47.814;9.798;2023-03-25T10:33:38;7.50;99.90
4655;DHT22;2340;47.814;9.798;2023-03-25T10:36:02;7.20;99.90
4655;DHT22;2340;47.814;9.798;2023-03-25T10:38:29;7.10;99.90
4655;DHT22;2340;47.814;9.798;2023-03-25T10:41:02;7.00;99.90
4655;DHT22;2340;47.814;9.798;2023-03-25T10:43:33;7.00;99.90
4655;DHT22;2340;47.814;9.798;2023-03-25T10:46:46;7.00;99.90
4655;DHT22;2340;47.814;9.798;2023-03-25T10:48:46;7.00;99.90
4655;DHT22;2340;47.814;9.798;2023-03-25T10:51:13;6.90;99.90
4655;DHT22;2340;47.814;9.798;2023-03-25T10:53:40;6.90;99.90
4655;DHT22;2340;47.814;9.798;2023-03-25T10:56:07;6.90;99.90
4655;DHT22;2340;47.814;9.798;2023-03-25T10:58:34;6.90;99.90
4655;DHT22;2340;47.814;9.798;2023-03-25T11:01:03;6.90;99.90
4655;DHT22;2340;47.814;9.798;2023-03-25T11:03:33;6.80;99.90
4655;DHT22;2340;47.814;9.798;2023-03-25T11:05:59;6.80;99.90
4655;DHT22;2340;47.814;9.798;2023-03-25T11:08:25;6.70;99.90
4655;DHT22;2340;47.814;9.798;2023-03-25T11:10:51;6.70;99.90
4655;DHT22;2340;47.814;9.798;2023-03-25T11:13:28;6.70;99.90
4655;DHT22;2340;47.814;9.798;2023-03-25T11:15:58;6.70;99.90
4655;DHT22;2340;47.814;9.798;2023-03-25T11:20:55;7.00;99.90
4655;DHT22;2340;47.814;9.798;2023-03-25T11:23:26;7.00;99.90
4655;DHT22;2340;47.814;9.798;2023-03-25T11:25:53;6.90;99.90
4655;DHT22;2340;47.814;9.798;2023-03-25T11:28:21;6.80;99.90
4655;DHT22;2340;47.814;9.798;2023-03-25T11:31:04;6.60;99.90
4655;DHT22;2340;47.814;9.798;2023-03-25T11:33:30;6.50;99.90
4655;DHT22;2340;47.814;9.798;2023-03-25T11:35:56;6.40;99.90
4655;DHT22;2340;47.814;9.798;2023-03-25T11:38:34;6.40;99.90
4655;DHT22;2340;47.814;9.798;2023-03-25T11:41:02;6.40;99.90
4655;DHT22;2340;47.814;9.798;2023-03-25T11:43:32;6.50;99.90
4655;DHT22;2340;47.814;9.798;2023-03-25T11:46:06;6.40;99.90
4655;DHT22;2340;47.814;9.798;2023-03-25T11:48:32;6.40;99.90
4655;DHT22;2340;47.814;9.798;2023-03-25T11:51:01;6.40;99.90
4655;DHT22;2340;47.814;9.798;2023-03-25T11:53:30;6.70;99.90
4655;DHT22;2340;47.814;9.798;2023-03-25T11:55:58;6.90;99.90
4655;DHT22;2340;47.814;9.798;2023-03-25T11:58:25;7.10;99.90
4655;DHT22;2340;47.814;9.798;2023-03-25T12:03:38;7.20;99.90
4655;DHT22;2340;47.814;9.798;2023-03-25T12:08:30;7.60;99.90
4655;DHT22;2340;47.814;9.798;2023-03-25T12:11:25;7.60;99.90
4655;DHT22;2340;47.814;9.798;2023-03-25T12:16:40;7.80;99.90
4655;DHT22;2340;47.814;9.798;2023-03-25T12:19:27;8.00;99.90
4655;DHT22;2340;47.814;9.798;2023-03-25T12:24:27;8.30;99.90
4655;DHT22;2340;47.814;9.798;2023-03-25T12:42:19;9.70;99.90
4655;DHT22;2340;47.814;9.798;2023-03-25T12:47:34;9.60;99.90
4655;DHT22;2340;47.814;9.798;2023-03-25T12:50:03;9.60;99.90
4655;DHT22;2340;47.814;9.798;2023-03-25T12:52:42;10.30;99.90
4655;DHT22;2340;47.814;9.798;2023-03-25T13:00:18;12.70;99.90
4655;DHT22;2340;47.814;9.798;2023-03-25T13:02:56;13.60;99.90
4655;DHT22;2340;47.814;9.798;2023-03-25T13:08:15;15.60;99.90
4655;DHT22;2340;47.814;9.798;2023-03-25T13:10:43;15.80;99.90
4655;DHT22;2340;47.814;9.798;2023-03-25T13:13:14;16.50;99.90
4655;DHT22;2340;47.814;9.798;2023-03-25T13:15:44;16.40;99.90
4655;DHT22;2340;47.814;9.798;2023-03-25T13:18:16;16.30;99.90
4655;DHT22;2340;47.814;9.798;2023-03-25T13:21:00;15.40;99.90
4655;DHT22;2340;47.814;9.798;2023-03-25T13:23:27;14.20;99.90
4655;DHT22;2340;47.814;9.798;2023-03-25T13:26:00;13.30;99.90
4655;DHT22;2340;47.814;9.798;2023-03-25T13:28:36;12.40;99.90
4655;DHT22;2340;47.814;9.798;2023-03-25T13:31:04;11.70;99.90
4655;DHT22;2340;47.814;9.798;2023-03-25T13:33:32;10.80;99.90
4655;DHT22;2340;47.814;9.798;2023-03-25T13:38:40;10.00;99.90
4655;DHT22;2340;47.814;9.798;2023-03-25T13:41:09;9.80;99.90
4655;DHT22;2340;47.814;9.798;2023-03-25T13:46:15;9.60;99.90
4655;DHT22;2340;47.814;9.798;2023-03-25T13:49:02;9.70;99.90
4655;DHT22;2340;47.814;9.798;2023-03-25T13:51:31;9.80;99.90
4655;DHT22;2340;47.814;9.798;2023-03-25T13:54:39;9.90;99.90
4655;DHT22;2340;47.814;9.798;2023-03-25T14:12:42;9.50;99.90
4655;DHT22;2340;47.814;9.798;2023-03-25T14:17:34;10.00;99.90
4655;DHT22;2340;47.814;9.798;2023-03-25T14:20:00;10.00;99.90
4655;DHT22;2340;47.814;9.798;2023-03-25T14:22:29;9.90;99.90
4655;DHT22;2340;47.814;9.798;2023-03-25T14:24:56;9.90;99.90
4655;DHT22;2340;47.814;9.798;2023-03-25T14:27:29;9.80;99.90
4655;DHT22;2340;47.814;9.798;2023-03-25T14:34:47;9.70;99.90
4655;DHT22;2340;47.814;9.798;2023-03-25T14:39:41;9.50;99.90
4655;DHT22;2340;47.814;9.798;2023-03-25T14:44:36;9.80;99.90
4655;DHT22;2340;47.814;9.798;2023-03-25T14:52:47;9.60;99.90
4655;DHT22;2340;47.814;9.798;2023-03-25T14:55:25;9.40;99.90
4655;DHT22;2340;47.814;9.798;2023-03-25T14:57:54;9.30;99.90
4655;DHT22;2340;47.814;9.798;2023-03-25T15:00:23;9.30;99.90
4655;DHT22;2340;47.814;9.798;2023-03-25T15:02:52;9.30;99.90
4655;DHT22;2340;47.814;9.798;2023-03-25T15:05:23;9.10;99.90
4655;DHT22;2340;47.814;9.798;2023-03-25T15:07:50;9.00;99.90
4655;DHT22;2340;47.814;9.798;2023-03-25T15:10:28;9.00;99.90
4655;DHT22;2340;47.814;9.798;2023-03-25T15:13:17;8.80;99.90
4655;DHT22;2340;47.814;9.798;2023-03-25T15:18:08;8.70;99.90
4655;DHT22;2340;47.814;9.798;2023-03-25T15:20:34;8.70;99.90
4655;DHT22;2340;47.814;9.798;2023-03-25T15:23:33;8.60;99.90
4655;DHT22;2340;47.814;9.798;2023-03-25T15:25:52;8.50;99.90
4655;DHT22;2340;47.814;9.798;2023-03-25T15:28:21;8.40;99.90
4655;DHT22;2340;47.814;9.798;2023-03-25T15:36:16;8.50;99.90
4655;DHT22;2340;47.814;9.798;2023-03-25T15:41:14;8.40;99.90
4655;DHT22;2340;47.814;9.798;2023-03-25T15:56:59;7.90;99.90
4655;DHT22;2340;47.814;9.798;2023-03-25T15:59:28;8.00;99.90
4655;DHT22;2340;47.814;9.798;2023-03-25T16:01:55;7.90;99.90
4655;DHT22;2340;47.814;9.798;2023-03-25T16:06:48;8.00;99.90
4655;DHT22;2340;47.814;9.798;2023-03-25T16:09:36;8.20;99.90
4655;DHT22;2340;47.814;9.798;2023-03-25T16:12:02;8.00;99.90
4655;DHT22;2340;47.814;9.798;2023-03-25T16:14:29;8.00;99.90
4655;DHT22;2340;47.814;9.798;2023-03-25T16:16:55;8.00;99.90
4655;DHT22;2340;47.814;9.798;2023-03-25T16:19:31;8.10;99.90
4655;DHT22;2340;47.814;9.798;2023-03-25T16:22:02;8.40;99.90
4655;DHT22;2340;47.814;9.798;2023-03-25T16:24:32;8.40;99.90
4655;DHT22;2340;47.814;9.798;2023-03-25T16:27:07;8.30;99.90
4655;DHT22;2340;47.814;9.798;2023-03-25T16:29:33;8.20;99.90
4655;DHT22;2340;47.814;9.798;2023-03-25T16:31:59;8.00;99.90
4655;DHT22;2340;47.814;9.798;2023-03-25T16:34:26;8.00;99.90
4655;DHT22;2340;47.814;9.798;2023-03-25T16:36:53;8.00;99.90
4655;DHT22;2340;47.814;9.798;2023-03-25T16:39:19;7.90;99.90
4655;DHT22;2340;47.814;9.798;2023-03-25T16:41:47;7.90;99.90
4655;DHT22;2340;47.814;9.798;2023-03-25T16:44:16;7.90;99.90
4655;DHT22;2340;47.814;9.798;2023-03-25T16:46:44;7.80;99.90
4655;DHT22;2340;47.814;9.798;2023-03-25T16:52:08;7.90;99.90
4655;DHT22;2340;47.814;9.798;2023-03-25T16:57:07;7.80;99.90
4655;DHT22;2340;47.814;9.798;2023-03-25T16:59:36;7.80;99.90
4655;DHT22;2340;47.814;9.798;2023-03-25T17:02:02;7.80;99.90
4655;DHT22;2340;47.814;9.798;2023-03-25T17:07:16;7.80;99.90
4655;DHT22;2340;47.814;9.798;2023-03-25T17:09:55;7.80;99.90
4655;DHT22;2340;47.814;9.798;2023-03-25T17:12:22;7.80;99.90
4655;DHT22;2340;47.814;9.798;2023-03-25T17:14:49;7.80;99.90
4655;DHT22;2340;47.814;9.798;2023-03-25T17:19:47;7.80;99.90
4655;DHT22;2340;47.814;9.798;2023-03-25T17:22:26;7.80;99.90
4655;DHT22;2340;47.814;9.798;2023-03-25T17:24:53;7.70;99.90
4655;DHT22;2340;47.814;9.798;2023-03-25T17:29:51;7.60;99.90
4655;DHT22;2340;47.814;9.798;2023-03-25T17:32:18;7.60;99.90
4655;DHT22;2340;47.814;9.798;2023-03-25T17:34:53;7.50;99.90
4655;DHT22;2340;47.814;9.798;2023-03-25T17:37:19;7.50;99.90
4655;DHT22;2340;47.814;9.798;2023-03-25T17:39:46;7.40;99.90
4655;DHT22;2340;47.814;9.798;2023-03-25T17:42:18;7.30;99.90
4655;DHT22;2340;47.814;9.798;2023-03-25T17:44:44;7.20;99.90
4655;DHT22;2340;47.814;9.798;2023-03-25T17:47:19;7.10;99.90
4655;DHT22;2340;47.814;9.798;2023-03-25T17:49:45;7.10;99.90
4655;DHT22;2340;47.814;9.798;2023-03-25T17:52:10;7.10;99.90
4655;DHT22;2340;47.814;9.798;2023-03-25T17:54:36;7.10;99.90
4655;DHT22;2340;47.814;9.798;2023-03-25T17:57:02;7.00;99.90
4655;DHT22;2340;47.814;9.798;2023-03-25T17:59:29;7.00;99.90
4655;DHT22;2340;47.814;9.798;2023-03-25T18:01:55;7.00;99.90
4655;DHT22;2340;47.814;9.798;2023-03-25T18:04:21;6.90;99.90
4655;DHT22;2340;47.814;9.798;2023-03-25T18:06:46;6.90;99.90
4655;DHT22;2340;47.814;9.798;2023-03-25T18:09:14;6.80;99.90
4655;DHT22;2340;47.814;9.798;2023-03-25T18:11:40;6.70;99.90
4655;DHT22;2340;47.814;9.798;2023-03-25T18:14:05;6.70;99.90
4655;DHT22;2340;47.814;9.798;2023-03-25T18:16:31;6.70;99.90
4655;DHT22;2340;47.814;9.798;2023-03-25T18:18:56;6.60;99.90
4655;DHT22;2340;47.814;9.798;2023-03-25T18:21:22;6.60;99.90
4655;DHT22;2340;47.814;9.798;2023-03-25T18:23:47;6.60;99.90
4655;DHT22;2340;47.814;9.798;2023-03-25T18:26:15;6.60;99.90
4655;DHT22;2340;47.814;9.798;2023-03-25T18:28:41;6.60;99.90
4655;DHT22;2340;47.814;9.798;2023-03-25T18:31:11;6.60;99.90
4655;DHT22;2340;47.814;9.798;2023-03-25T18:33:42;6.60;99.90
4655;DHT22;2340;47.814;9.798;2023-03-25T18:36:08;6.60;99.90
4655;DHT22;2340;47.814;9.798;2023-03-25T18:38:33;6.70;99.90
4655;DHT22;2340;47.814;9.798;2023-03-25T18:40:59;6.70;99.90
4655;DHT22;2340;47.814;9.798;2023-03-25T18:43:24;6.60;99.90
4655;DHT22;2340;47.814;9.798;2023-03-25T18:45:50;6.60;99.90
4655;DHT22;2340;47.814;9.798;2023-03-25T18:48:20;6.60;99.90
4655;DHT22;2340;47.814;9.798;2023-03-25T18:50:56;6.60;99.90
4655;DHT22;2340;47.814;9.798;2023-03-25T18:53:23;6.60;99.90
4655;DHT22;2340;47.814;9.798;2023-03-25T18:55:48;6.60;99.90
4655;DHT22;2340;47.814;9.798;2023-03-25T18:58:18;6.50;99.90
4655;DHT22;2340;47.814;9.798;2023-03-25T19:00:44;6.60;99.90
4655;DHT22;2340;47.814;9.798;2023-03-25T19:03:10;6.60;99.90
4655;DHT22;2340;47.814;9.798;2023-03-25T19:05:36;6.60;99.90
4655;DHT22;2340;47.814;9.798;2023-03-25T19:08:02;6.60;99.90
4655;DHT22;2340;47.814;9.798;2023-03-25T19:10:31;6.60;99.90
4655;DHT22;2340;47.814;9.798;2023-03-25T19:12:56;6.60;99.90
4655;DHT22;2340;47.814;9.798;2023-03-25T19:15:23;6.50;99.90
4655;DHT22;2340;47.814;9.798;2023-03-25T19:17:53;6.60;99.90